• Join FlightAware (Why Join?)
  • Login
  • US Flag 
11:09PM EDT


 

Airport Tracker/Info


-or-


 

Live Flight TrackerFlight Track Log ✈ N90CJ ✈ 08-May-2013 ✈ KHVC - KMRJ

Flight Track Log - Related Links

Times and Time Zones

All times are in EDT time to prevent confusion due to time zone crossing. See the N90CJ flight status page for this flight to view local times or setup timezone preferences in your user account.

Time Position Orientation Groundspeed Altitude Reporting Facility
EDT Latitude Longitude Course Direction KTS MPH feet Rate Location/Type
02:43PM 36.9361 -87.4914 North 252 290 4,400  Level Memphis Center
02:44PM 36.9633 -87.4906 North 391 450 4,800 1,920 Climbing Memphis Center
02:45PM 37.0328 -87.5219 340° North 267 307 7,300 2,280 Climbing Memphis Center
02:46PM 37.0981 -87.5506 341° North 267 307 9,400 1,800 Climbing Memphis Center
02:47PM 37.1675 -87.5794 342° North 257 296 11,000 1,920 Climbing Memphis Center
02:48PM 37.2919 -87.6308 342° North 299 344 14,300 2,160 Climbing Kansas City Center
02:49PM 37.3394 -87.6517 341° North 297 342 15,800 2,220 Climbing Indianapolis Center
02:50PM 37.4194 -87.6856 341° North 298 343 18,100 2,400 Climbing Indianapolis Center
02:51PM 37.5128 -87.7253 341° North 302 348 20,800 2,460 Climbing Indianapolis Center
02:52PM 37.5939 -87.7600 341° North 304 350 23,200 2,220 Climbing Indianapolis Center
02:53PM 37.6722 -87.7928 342° North 296 341 25,400 1,980 Climbing Indianapolis Center
02:54PM 37.7492 -87.8281 340° North 292 336 27,400 1,800 Climbing Indianapolis Center
02:55PM 37.8261 -87.8606 342° North 293 337 29,200 1,740 Climbing Indianapolis Center
02:56PM 37.9036 -87.8953 341° North 293 337 31,100 1,920 Climbing Indianapolis Center
02:57PM 37.9350 -87.9092 341° North 294 338 31,900 1,920 Climbing Kansas City Center
02:58PM 38.0103 -87.9406 342° North 289 333 33,800 1,740 Climbing Kansas City Center
02:59PM 38.0853 -87.9731 341° North 284 327 35,500 1,560 Climbing Kansas City Center
02:59PM 38.1436 -87.9986 341° North 279 321 36,500 1,200 Climbing Indianapolis Center
03:00PM 38.2194 -88.0328 341° North 286 329 37,600 720 Climbing Indianapolis Center
03:01PM 38.2997 -88.0678 341° North 298 343 38,000 180 Climbing Indianapolis Center
03:02PM 38.3872 -88.1075 340° North 326 375 38,000  Level Indianapolis Center
03:03PM 38.4228 -88.1228 341° North 322 371 38,000  Level Kansas City Center
03:04PM 38.5161 -88.1642 341° North 340 391 38,000  Level Kansas City Center
03:05PM 38.6111 -88.2056 341° North 348 400 38,000 600 Level Kansas City Center
03:06PM 38.7028 -88.2469 341° North 350 403 39,300 960 Climbing Kansas City Center
03:07PM 38.7911 -88.2858 341° North 343 395 40,000 300 Climbing Kansas City Center
03:08PM 38.8811 -88.3275 340° North 341 392 40,000  Level Kansas City Center
03:09PM 38.9583 -88.3606 342° North 357 411 40,000  Level Indianapolis Center
03:09PM 38.9961 -88.3792 339° North 356 410 40,000  Level Kansas City Center
03:10PM 39.0953 -88.4228 341° North 369 425 40,000  Level Kansas City Center
03:11PM 39.1939 -88.4667 341° North 372 428 40,000  Level Kansas City Center
03:12PM 39.2928 -88.5114 341° North 375 432 40,000  Level Kansas City Center
03:13PM 39.3928 -88.5564 341° North 378 435 40,000  Level Kansas City Center
03:14PM 39.4928 -88.6031 340° North 381 438 40,000  Level Kansas City Center
03:15PM 39.5919 -88.6472 341° North 379 436 40,000  Level Kansas City Center
03:16PM 39.7106 -88.7011 341° North 375 432 40,000  Level Kansas City Center
03:17PM 39.8086 -88.7472 340° North 376 433 40,000  Level Kansas City Center
03:18PM 39.9064 -88.7903 341° North 373 429 40,000  Level Kansas City Center
03:19PM 40.0044 -88.8378 340° North 375 432 40,000  Level Kansas City Center
03:20PM 40.1039 -88.8828 341° North 376 433 40,000  Level Kansas City Center
03:21PM 40.1422 -88.9025 339° North 378 435 40,000  Level Chicago Center
03:22PM 40.2394 -88.9475 341° North 375 432 40,000  Level Chicago Center
03:23PM 40.3381 -88.9931 341° North 377 434 40,000  Level Chicago Center
03:24PM 40.4361 -89.0397 340° North 376 433 40,000  Level Chicago Center
03:25PM 40.5344 -89.0844 341° North 375 432 40,000  Level Chicago Center
03:26PM 40.6311 -89.1306 340° North 372 428 40,000  Level Chicago Center
03:27PM 40.7494 -89.1864 340° North 376 433 40,000 -300 Level Chicago Center
03:28PM 40.8472 -89.2333 340° North 377 434 39,500 -780 Descending Chicago Center
03:29PM 40.9447 -89.2797 340° North 374 430 38,500 -960 Descending Chicago Center
03:30PM 41.0419 -89.3256 340° North 374 430 37,600 -1,080 Descending Chicago Center
03:31PM 41.1367 -89.3714 340° North 366 421 36,300 -1,560 Descending Chicago Center
03:32PM 41.2500 -89.4242 341° North 361 415 34,400 -1,860 Descending Chicago Center
03:33PM 41.3417 -89.4692 340° North 354 407 32,500 -1,860 Descending Chicago Center
03:34PM 41.4350 -89.5147 340° North 357 411 30,600 -1,860 Descending Chicago Center
03:35PM 41.5289 -89.5583 341° North 360 414 28,700 -1,920 Descending Chicago Center
03:36PM 41.6239 -89.6056 340° North 363 418 26,700 -2,160 Descending Chicago Center
03:37PM 41.7364 -89.6594 340° North 359 413 24,300 -2,040 Descending Chicago Center
03:38PM 41.8186 -89.7011 339° North 352 405 22,500 -2,040 Descending Chicago Center
03:39PM 41.9278 -89.7544 340° North 349 402 20,100 -2,160 Descending Chicago Center
03:40PM 42.0181 -89.7992 340° North 349 402 18,100 -1,800 Descending Chicago Center
03:41PM 42.1050 -89.8442 339° North 345 397 16,400 -1,800 Descending Chicago Center
03:42PM 42.1925 -89.8867 340° North 336 387 14,500 -1,260 Descending Chicago Center
03:43PM 42.2803 -89.9308 340° North 311 358 13,900 -1,020 Descending Chicago Center
03:45PM 42.3542 -89.9681 340° North 289 333 12,400 -1,440 Descending Chicago Center
03:46PM 42.4339 -90.0081 340° North 304 350 10,900 -1,380 Descending Chicago Center
03:47PM 42.5042 -90.0436 340° North 280 322 9,600 -1,620 Descending Chicago Center
03:48PM 42.5892 -90.0869 339° North 275 316 7,600 -1,800 Descending Chicago Center
03:49PM 42.6603 -90.1231 340° North 277 319 5,900 -1,260 Descending Chicago Center
03:50PM 42.7281 -90.1575 340° North 269 310 5,000 -900 Descending Chicago Center